Time;durP1;ratioP1;P1;durP2;ratioP2;P2;SDS_P1;SDS_P2;PMS_P1;PMS_P2;Temp;Humidity;BMP_temperature;BMP_pressure;BME280_temperature;BME280_humidity;BME280_pressure;Samples;Min_cycle;Max_cycle;Signal;HPM_P1;HPM_P2
2021/12/10 00:01:24;;;;;;;2.83;1.90;;;;;;;0.93;100.00;94145.38;5014763;28;20185;-73
2021/12/10 00:03:55;;;;;;;3.43;1.90;;;;;;;0.95;100.00;94142.31;5017317;28;20221;-52
2021/12/10 00:06:25;;;;;;;7.60;2.20;;;;;;;0.95;100.00;94134.25;5016959;28;20200;-51
2021/12/10 00:08:57;;;;;;;6.23;2.93;;;;;;;0.94;100.00;94128.09;5017241;28;20172;-51
2021/12/10 00:11:32;;;;;;;2.67;2.00;;;;;;;0.93;100.00;94121.19;5017107;28;20173;-50
2021/12/10 00:13:58;;;;;;;3.90;1.70;;;;;;;0.90;100.00;94116.56;5017053;28;20312;-52
2021/12/10 00:16:24;;;;;;;4.07;1.60;;;;;;;0.90;100.00;94111.19;5017558;28;20226;-53
2021/12/10 00:18:55;;;;;;;4.10;1.90;;;;;;;0.89;100.00;94115.03;5017122;28;20174;-60
2021/12/10 00:21:24;;;;;;;3.47;1.60;;;;;;;0.90;100.00;94105.81;5017264;28;20166;-60
2021/12/10 00:23:51;;;;;;;2.80;1.80;;;;;;;0.89;100.00;94101.59;5016529;28;20303;-57
2021/12/10 00:26:20;;;;;;;3.93;2.20;;;;;;;0.86;100.00;94099.66;5017220;28;20173;-57
2021/12/10 00:28:47;;;;;;;4.57;2.10;;;;;;;0.84;100.00;94099.25;5017186;28;20578;-62
2021/12/10 00:31:42;;;;;;;6.63;2.60;;;;;;;0.86;100.00;94090.81;5017462;28;20177;-56
2021/12/10 00:34:22;;;;;;;5.50;2.20;;;;;;;0.86;100.00;94085.44;5017201;28;20169;-58
2021/12/10 00:36:52;;;;;;;2.33;1.70;;;;;;;0.86;100.00;94083.53;5016566;28;20260;-52
2021/12/10 00:39:40;;;;;;;4.00;1.80;;;;;;;0.88;100.00;94075.09;5016419;28;20590;-58
2021/12/10 00:42:13;;;;;;;4.60;1.60;;;;;;;0.88;100.00;94070.50;5016620;28;20180;-58
2021/12/10 00:44:38;;;;;;;6.17;1.87;;;;;;;0.93;100.00;94072.06;5016939;28;20207;-58
2021/12/10 00:47:05;;;;;;;4.43;1.80;;;;;;;0.92;100.00;94071.31;5016364;28;20182;-60
2021/12/10 00:49:30;;;;;;;3.43;1.93;;;;;;;0.91;100.00;94059.00;5016551;28;20172;-59
2021/12/10 00:51:56;;;;;;;4.13;1.73;;;;;;;0.89;100.00;94058.63;5016283;28;20200;-59
2021/12/10 00:54:22;;;;;;;3.53;1.57;;;;;;;0.90;100.00;94054.78;5016208;28;20174;-57
2021/12/10 00:56:48;;;;;;;4.00;1.90;;;;;;;0.91;100.00;94050.19;5016747;28;20176;-61
2021/12/10 00:59:15;;;;;;;2.80;1.83;;;;;;;0.91;100.00;94042.88;5016735;28;20200;-59
2021/12/10 01:01:42;;;;;;;4.20;1.90;;;;;;;0.88;100.00;94043.66;5016552;28;20178;-59
2021/12/10 01:04:12;;;;;;;2.93;1.63;;;;;;;0.86;100.00;94035.19;5016110;28;20295;-59
2021/12/10 01:06:40;;;;;;;4.93;2.10;;;;;;;0.82;100.00;94034.38;5016312;28;20544;-59
2021/12/10 01:09:11;;;;;;;4.70;2.00;;;;;;;0.80;100.00;94027.84;5015904;28;20176;-60
2021/12/10 01:11:48;;;;;;;4.60;1.90;;;;;;;0.77;100.00;94018.63;5016438;28;20227;-59
2021/12/10 01:14:26;;;;;;;4.47;1.80;;;;;;;0.75;100.00;94023.59;5015055;28;20300;-52
2021/12/10 01:25:23;;;;;;;5.00;2.00;;;;;;;0.54;100.00;94004.66;5017146;28;20217;-60
2021/12/10 01:27:49;;;;;;;3.90;1.70;;;;;;;0.51;100.00;93997.34;5016274;28;20168;-59
2021/12/10 01:30:19;;;;;;;3.23;1.97;;;;;;;0.48;100.00;93987.38;5015616;28;20272;-59
2021/12/10 01:32:53;;;;;;;2.93;1.90;;;;;;;0.44;100.00;93991.97;5015304;28;20234;-53
2021/12/10 01:35:22;;;;;;;4.80;2.00;;;;;;;0.41;100.00;93981.97;5015889;28;20202;-53
2021/12/10 01:37:49;;;;;;;4.03;1.70;;;;;;;0.38;100.00;93973.88;5015142;28;20184;-55
2021/12/10 01:40:19;;;;;;;4.27;2.03;;;;;;;0.34;100.00;93975.75;5015051;28;20195;-54
2021/12/10 01:42:48;;;;;;;3.70;2.20;;;;;;;0.32;100.00;93962.72;5015123;28;20230;-55
2021/12/10 01:45:21;;;;;;;4.37;1.90;;;;;;;0.24;100.00;93966.50;5015344;28;20175;-55
2021/12/10 01:47:56;;;;;;;3.13;1.97;;;;;;;0.18;100.00;93957.25;5015639;28;20186;-53
2021/12/10 01:50:23;;;;;;;3.90;2.00;;;;;;;0.16;100.00;93956.88;5015493;28;20267;-51
2021/12/10 01:52:52;;;;;;;3.50;1.73;;;;;;;0.14;100.00;93947.66;5016031;28;20180;-76
2021/12/10 01:55:21;;;;;;;3.70;2.17;;;;;;;0.05;100.00;93942.59;5015831;28;20257;-57
2021/12/10 01:57:47;;;;;;;3.63;2.47;;;;;;;-0.01;100.00;93928.75;5015261;28;20176;-59
2021/12/10 02:00:13;;;;;;;4.93;2.20;;;;;;;-0.05;100.00;93921.81;5015446;28;20258;-58
2021/12/10 02:02:43;;;;;;;4.37;2.00;;;;;;;-0.09;100.00;93927.19;5014956;28;20195;-57
2021/12/10 02:05:09;;;;;;;4.50;2.27;;;;;;;-0.14;100.00;93924.06;5015285;28;20179;-58
2021/12/10 02:07:35;;;;;;;2.50;1.80;;;;;;;-0.20;100.00;93912.13;5015515;28;20183;-57
2021/12/10 02:10:01;;;;;;;4.43;2.13;;;;;;;-0.28;100.00;93907.88;5015531;28;20179;-54
2021/12/10 02:12:26;;;;;;;3.90;2.07;;;;;;;-0.34;100.00;93901.28;5015532;28;20175;-50
2021/12/10 02:15:03;;;;;;;3.10;1.93;;;;;;;-0.41;100.00;93893.19;5015294;28;20227;-52
2021/12/10 02:17:37;;;;;;;3.93;1.97;;;;;;;-0.47;100.00;93883.97;5014984;28;20175;-52
2021/12/10 02:20:08;;;;;;;5.80;2.30;;;;;;;-0.53;100.00;93874.72;5015696;28;20541;-52
2021/12/10 02:22:34;;;;;;;3.47;1.93;;;;;;;-0.59;100.00;93870.81;5015023;28;20172;-52
2021/12/10 02:25:00;;;;;;;4.50;1.87;;;;;;;-0.65;100.00;93861.59;5014714;28;20183;-50
2021/12/10 02:27:25;;;;;;;3.43;1.57;;;;;;;-0.68;100.00;93862.34;5014812;28;20263;-49
2021/12/10 02:29:50;;;;;;;3.93;1.80;;;;;;;-0.73;100.00;93843.94;5014391;28;20172;-59
2021/12/10 02:32:16;;;;;;;1.80;1.50;;;;;;;-0.76;100.00;93842.00;5014680;28;20179;-52
2021/12/10 02:34:43;;;;;;;3.70;1.80;;;;;;;-0.79;100.00;93837.38;5015364;28;20183;-52
2021/12/10 02:37:10;;;;;;;1.83;1.60;;;;;;;-0.82;100.00;93832.75;5015340;28;20203;-53
2021/12/10 02:39:36;;;;;;;2.00;1.37;;;;;;;-0.90;100.00;93818.53;5014395;28;20175;-52
2021/12/10 02:42:02;;;;;;;2.83;1.50;;;;;;;-0.94;100.00;93811.59;5014447;28;20198;-54
2021/12/10 02:44:30;;;;;;;2.67;1.50;;;;;;;-0.97;100.00;93810.44;5014349;28;20230;-56
2021/12/10 02:46:56;;;;;;;3.97;1.53;;;;;;;-1.01;100.00;93798.16;5014465;28;20207;-57
2021/12/10 02:49:22;;;;;;;2.27;1.33;;;;;;;-1.07;100.00;93797.72;5014733;28;20238;-73
2021/12/10 02:51:48;;;;;;;2.80;1.40;;;;;;;-1.13;100.00;93788.47;5014109;28;20591;-74
2021/12/10 02:54:20;;;;;;;1.80;1.20;;;;;;;-1.17;100.00;93793.03;5014629;28;20230;-73
2021/12/10 02:56:46;;;;;;;1.20;1.10;;;;;;;-1.22;100.00;93784.56;5014336;28;20175;-68
2021/12/10 02:59:11;;;;;;;2.80;1.40;;;;;;;-1.26;100.00;93773.84;5014477;28;20620;-68
2021/12/10 03:01:43;;;;;;;1.90;1.20;;;;;;;-1.30;100.00;93767.69;5014758;28;20210;-68
2021/12/10 03:04:10;;;;;;;2.40;1.60;;;;;;;-1.32;100.00;93767.25;5014509;28;20668;-52
2021/12/10 03:06:45;;;;;;;2.77;1.17;;;;;;;-1.34;100.00;93766.84;5014519;28;20183;-60
2021/12/10 03:09:12;;;;;;;2.30;1.20;;;;;;;-1.36;100.00;93763.00;5013741;28;20175;-48
2021/12/10 03:11:42;;;;;;;1.50;1.13;;;;;;;-1.40;100.00;93770.22;5013837;28;20175;-47
2021/12/10 03:14:10;;;;;;;2.00;1.27;;;;;;;-1.45;100.00;93765.22;5014249;28;20224;-50
2021/12/10 03:16:41;;;;;;;2.37;1.37;;;;;;;-1.49;100.00;93764.41;5014342;28;20183;-50
2021/12/10 03:19:07;;;;;;;3.17;1.50;;;;;;;-1.52;100.00;93762.47;5013864;28;20186;-48
2021/12/10 03:21:34;;;;;;;2.17;1.20;;;;;;;-1.57;100.00;93754.78;5013811;28;20179;-48
2021/12/10 03:24:00;;;;;;;4.50;1.20;;;;;;;-1.60;100.00;93750.16;5013717;28;20277;-59
2021/12/10 03:26:25;;;;;;;1.57;1.20;;;;;;;-1.62;100.00;93739.06;5013906;28;20183;-51
2021/12/10 03:28:53;;;;;;;1.47;1.17;;;;;;;-1.66;100.00;93746.28;5013403;28;20187;-56
2021/12/10 03:31:23;;;;;;;1.30;1.10;;;;;;;-1.70;100.00;93748.16;5013816;28;20179;-54
2021/12/10 03:33:51;;;;;;;1.43;1.00;;;;;;;-1.72;100.00;93745.06;5014102;28;20175;-51
2021/12/10 03:36:17;;;;;;;4.43;1.23;;;;;;;-1.74;100.00;93731.28;5013550;28;20207;-54
2021/12/10 03:38:42;;;;;;;1.50;1.10;;;;;;;-1.75;100.00;93724.41;5014194;28;20177;-52
2021/12/10 03:41:10;;;;;;;2.97;1.10;;;;;;;-1.79;100.00;93728.97;5013297;28;20172;-51
2021/12/10 03:43:37;;;;;;;2.67;1.23;;;;;;;-1.81;100.00;93713.28;5013218;28;20221;-51
2021/12/10 03:46:03;;;;;;;1.63;1.00;;;;;;;-1.84;100.00;93708.66;5013009;28;20179;-52
2021/12/10 03:48:33;;;;;;;1.67;1.10;;;;;;;-1.89;100.00;93708.22;5012934;28;20290;-52
2021/12/10 03:51:02;;;;;;;2.97;1.17;;;;;;;-1.93;100.00;93712.75;5013250;28;20179;-54
2021/12/10 03:53:27;;;;;;;1.33;0.80;;;;;;;-1.94;100.00;93703.19;5013542;28;20176;-55
2021/12/10 03:56:01;;;;;;;1.90;1.20;;;;;;;-1.97;100.00;93703.94;5013279;28;20176;-51
2021/12/10 03:58:27;;;;;;;1.53;0.93;;;;;;;-2.00;100.00;93693.97;5013696;28;20227;-55
2021/12/10 04:00:55;;;;;;;2.23;1.20;;;;;;;-2.03;100.00;93687.44;5013249;28;20262;-53
2021/12/10 04:03:23;;;;;;;4.13;1.70;;;;;;;-2.06;100.00;93684.72;5013083;28;20199;-59
2021/12/10 04:05:50;;;;;;;2.80;1.67;;;;;;;-2.07;100.00;93688.53;5013844;28;20206;-59
2021/12/10 04:08:16;;;;;;;2.63;1.20;;;;;;;-2.09;100.00;93688.13;5013666;28;20617;-59
2021/12/10 04:10:43;;;;;;;2.43;1.20;;;;;;;-2.12;100.00;93683.53;5013237;28;20205;-59
2021/12/10 04:13:10;;;;;;;2.20;1.40;;;;;;;-2.13;100.00;93676.63;5012731;28;20227;-59
2021/12/10 04:15:36;;;;;;;3.47;1.90;;;;;;;-2.16;100.00;93674.69;5013706;28;20175;-59
2021/12/10 04:18:03;;;;;;;3.57;1.30;;;;;;;-2.20;100.00;93661.28;5012966;28;20180;-70
2021/12/10 04:20:30;;;;;;;2.50;1.37;;;;;;;-2.19;100.00;93654.06;5013831;28;20240;-71
2021/12/10 04:23:01;;;;;;;3.57;2.17;;;;;;;-2.21;100.00;93637.59;5014044;28;20182;-69
2021/12/10 04:25:26;;;;;;;2.13;1.23;;;;;;;-2.23;100.00;93650.56;5014028;28;20179;-70
2021/12/10 04:27:59;;;;;;;2.87;1.10;;;;;;;-2.27;100.00;93644.41;5013366;28;20182;-70
2021/12/10 04:30:26;;;;;;;7.93;1.30;;;;;;;-2.29;100.00;93644.00;5013400;28;20213;-70
2021/12/10 04:32:52;;;;;;;1.37;1.10;;;;;;;-2.30;100.00;93639.81;5012782;28;20182;-68
2021/12/10 04:35:18;;;;;;;1.43;1.07;;;;;;;-2.28;100.00;93637.53;5012744;28;20170;-67
2021/12/10 04:37:46;;;;;;;3.30;1.20;;;;;;;-2.31;100.00;93630.22;5014194;28;20243;-71
2021/12/10 04:40:16;;;;;;;2.27;1.70;;;;;;;-2.32;100.00;93636.72;5012548;28;20643;-60
2021/12/10 04:42:42;;;;;;;2.67;1.30;;;;;;;-2.35;100.00;93621.41;5013146;28;20171;-58
2021/12/10 04:45:10;;;;;;;2.90;1.50;;;;;;;-2.33;100.00;93619.16;5012754;28;20176;-58
2021/12/10 04:47:35;;;;;;;3.60;1.27;;;;;;;-2.37;100.00;93618.34;5012270;28;20183;-60
2021/12/10 04:50:05;;;;;;;2.63;1.20;;;;;;;-2.39;100.00;93620.59;5016519;28;20186;-59
2021/12/10 04:52:31;;;;;;;1.63;1.10;;;;;;;-2.43;100.00;93614.47;5015953;28;20701;-60
2021/12/10 04:54:57;;;;;;;1.53;1.20;;;;;;;-2.45;100.00;93616.75;5016109;28;20179;-59
2021/12/10 04:57:22;;;;;;;2.53;1.17;;;;;;;-2.50;100.00;93614.38;5016888;28;20253;-49
2021/12/10 04:59:47;;;;;;;1.87;1.30;;;;;;;-2.50;100.00;93620.50;5016107;28;20200;-51
2021/12/10 05:02:15;;;;;;;3.53;1.40;;;;;;;-2.49;100.00;93615.91;5016235;28;20181;-49
2021/12/10 05:04:43;;;;;;;1.60;1.30;;;;;;;-2.50;100.00;93601.03;5016400;28;20247;-48
2021/12/10 05:07:11;;;;;;;2.60;1.53;;;;;;;-2.45;100.00;93592.69;5016043;28;20225;-50
2021/12/10 05:09:37;;;;;;;1.83;1.33;;;;;;;-2.44;100.00;93575.53;5016267;28;20329;-50
2021/12/10 05:12:03;;;;;;;2.03;1.17;;;;;;;-2.48;100.00;93558.69;5016310;28;20179;-64
2021/12/10 05:14:31;;;;;;;5.03;1.03;;;;;;;-2.52;100.00;93542.63;5015834;28;20239;-62
2021/12/10 05:17:02;;;;;;;1.07;0.97;;;;;;;-2.57;100.00;93542.97;5015571;28;20273;-65
2021/12/10 05:19:28;;;;;;;4.00;1.30;;;;;;;-2.59;100.00;93552.47;5015746;28;20167;-68
2021/12/10 05:21:59;;;;;;;3.03;1.30;;;;;;;-2.58;100.00;93564.69;5015985;28;20171;-63
2021/12/10 05:24:24;;;;;;;2.00;1.40;;;;;;;-2.56;100.00;93568.53;5015882;28;20194;-65
2021/12/10 05:26:50;;;;;;;3.77;1.60;;;;;;;-2.53;100.00;93562.47;5016183;28;20183;-66
2021/12/10 05:29:15;;;;;;;2.90;1.50;;;;;;;-2.53;100.00;93567.03;5015435;28;20183;-66
2021/12/10 05:31:43;;;;;;;2.57;1.53;;;;;;;-2.56;100.00;93560.50;5015663;28;20183;-60
2021/12/10 05:34:10;;;;;;;4.27;1.30;;;;;;;-2.59;100.00;93558.56;5015399;28;20190;-55
2021/12/10 05:36:35;;;;;;;2.47;1.20;;;;;;;-2.63;100.00;93554.34;5015535;28;20237;-56
2021/12/10 05:39:02;;;;;;;1.83;1.10;;;;;;;-2.65;100.00;93553.94;5016080;28;20175;-55
2021/12/10 05:41:28;;;;;;;2.20;1.40;;;;;;;-2.71;100.00;93550.81;5015581;28;20178;-53
2021/12/10 05:43:53;;;;;;;1.80;1.17;;;;;;;-2.62;100.00;93543.28;5015350;28;20199;-57
2021/12/10 05:46:19;;;;;;;2.10;1.20;;;;;;;-2.65;100.00;93537.91;5015274;28;20171;-56
2021/12/10 05:48:45;;;;;;;1.83;1.50;;;;;;;-2.72;100.00;93527.94;5015415;28;20183;-57
2021/12/10 05:51:12;;;;;;;2.00;1.10;;;;;;;-2.77;100.00;93527.47;5014567;28;20179;-56
2021/12/10 05:53:37;;;;;;;2.33;1.50;;;;;;;-2.83;100.00;93528.94;5015624;28;20167;-59
2021/12/10 05:56:04;;;;;;;2.83;1.40;;;;;;;-2.87;100.00;93525.47;5014776;28;20254;-60
2021/12/10 05:58:30;;;;;;;3.73;1.50;;;;;;;-2.91;100.00;93520.09;5014744;28;20285;-59
2021/12/10 06:01:02;;;;;;;1.57;1.20;;;;;;;-2.91;100.00;93520.09;5014699;28;20254;-60
2021/12/10 06:03:28;;;;;;;1.63;1.30;;;;;;;-2.95;100.00;93508.59;5015142;28;20188;-60
2021/12/10 06:05:53;;;;;;;4.30;1.70;;;;;;;-2.96;100.00;93514.31;5014761;28;20175;-60
2021/12/10 06:08:19;;;;;;;2.00;1.27;;;;;;;-2.98;100.00;93508.56;5014677;28;20171;-68
2021/12/10 06:10:48;;;;;;;2.30;1.77;;;;;;;-3.01;100.00;93504.72;5014740;28;20175;-67
2021/12/10 06:13:14;;;;;;;2.63;1.70;;;;;;;-3.01;100.00;93498.59;5014186;28;20285;-68
2021/12/10 06:15:39;;;;;;;3.10;1.60;;;;;;;-3.05;100.00;93495.13;5014802;28;20171;-65
2021/12/10 06:18:06;;;;;;;2.47;1.60;;;;;;;-3.06;100.00;93490.94;5014849;28;20606;-65
2021/12/10 06:20:35;;;;;;;3.83;1.50;;;;;;;-3.09;100.00;93479.09;5014282;28;20183;-68
2021/12/10 06:23:01;;;;;;;3.73;2.13;;;;;;;-3.08;100.00;93471.84;5014312;28;20178;-65
2021/12/10 06:25:28;;;;;;;6.10;2.10;;;;;;;-3.11;100.00;93478.69;5013918;28;20183;-64
2021/12/10 06:27:54;;;;;;;3.33;2.37;;;;;;;-3.09;100.00;93471.09;5013825;28;20237;-59
2021/12/10 06:37:09;;;;;;;6.77;3.17;;;;;;;-3.08;100.00;93451.28;5034530;28;20674;-49
2021/12/10 06:39:35;;;;;;;6.60;3.23;;;;;;;-3.10;100.00;93447.44;5048942;28;20198;-52
2021/12/10 06:42:01;;;;;;;6.83;3.40;;;;;;;-3.11;100.00;93440.53;5048744;28;20194;-49
2021/12/10 06:44:26;;;;;;;6.03;3.37;;;;;;;-3.07;100.00;93442.13;5048650;28;20253;-67
2021/12/10 06:46:52;;;;;;;4.83;3.67;;;;;;;-3.06;100.00;93440.22;5048595;28;20209;-58
2021/12/10 06:49:18;;;;;;;5.87;3.50;;;;;;;-3.02;100.00;93427.69;5048593;28;20196;-60
2021/12/10 06:51:45;;;;;;;8.97;4.37;;;;;;;-2.98;100.00;93433.81;5048421;28;20179;-60
2021/12/10 06:54:11;;;;;;;5.97;3.93;;;;;;;-2.97;100.00;93438.03;5048073;28;20182;-60
2021/12/10 06:56:37;;;;;;;6.50;4.13;;;;;;;-2.94;100.00;93434.63;5048464;28;20232;-59
2021/12/10 06:59:08;;;;;;;7.93;3.97;;;;;;;-2.88;100.00;93427.84;5048420;28;20178;-60
2021/12/10 07:01:38;;;;;;;10.80;4.63;;;;;;;-2.65;100.00;93415.84;5048289;28;20186;-60
2021/12/10 07:04:09;;;;;;;7.50;4.30;;;;;;;-2.27;100.00;93418.03;5048381;28;20240;-52
2021/12/10 07:06:36;;;;;;;7.43;4.70;;;;;;;-2.04;100.00;93407.13;5048244;28;20190;-47
2021/12/10 07:09:05;;;;;;;6.57;4.20;;;;;;;-1.92;100.00;93398.78;5048380;28;20329;-51
2021/12/10 07:11:30;;;;;;;8.40;4.53;;;;;;;-1.49;100.00;93395.19;5047115;28;20200;-50
2021/12/10 07:13:57;;;;;;;9.13;4.73;;;;;;;-1.00;100.00;93389.97;5048231;28;20304;-50
2021/12/10 07:16:25;;;;;;;8.83;5.10;;;;;;;-0.58;100.00;93387.38;5031867;28;20182;-48
2021/12/10 07:18:53;;;;;;;9.23;4.60;;;;;;;0.01;100.00;93386.56;5048072;28;20229;-47
2021/12/10 07:21:19;;;;;;;8.50;5.03;;;;;;;0.21;100.00;93387.66;5047952;28;20277;-60
2021/12/10 07:23:45;;;;;;;6.80;4.67;;;;;;;0.51;100.00;93396.00;5031531;28;20246;-63
2021/12/10 07:26:12;;;;;;;8.53;5.37;;;;;;;0.69;100.00;93387.91;5031666;28;20254;-59
2021/12/10 07:28:38;;;;;;;6.97;5.13;;;;;;;0.71;100.00;93383.69;5047855;28;20236;-59
2021/12/10 07:31:05;;;;;;;7.63;5.07;;;;;;;0.59;100.00;93396.75;5048085;28;20184;-59
2021/12/10 07:33:30;;;;;;;6.90;5.17;;;;;;;0.56;100.00;93395.63;5047802;28;20211;-60
2021/12/10 07:35:56;;;;;;;8.27;5.63;;;;;;;0.44;100.00;93406.78;5031460;28;20273;-61
2021/12/10 07:38:21;;;;;;;7.40;5.03;;;;;;;0.33;100.00;93406.06;5047762;28;20183;-62
2021/12/10 07:40:48;;;;;;;7.33;4.70;;;;;;;0.37;100.00;93403.34;5047863;28;20210;-53
2021/12/10 07:43:14;;;;;;;7.73;5.10;;;;;;;0.56;100.00;93405.59;5031129;28;20287;-53
2021/12/10 07:45:42;;;;;;;11.87;5.87;;;;;;;0.94;100.00;93392.00;5047910;28;20610;-50
2021/12/10 07:48:09;;;;;;;7.17;5.10;;;;;;;1.05;100.00;93392.72;5047553;28;20233;-50
2021/12/10 07:50:42;;;;;;;8.00;5.40;;;;;;;1.01;100.00;93386.59;5030880;28;20247;-51
2021/12/10 07:53:08;;;;;;;8.13;5.10;;;;;;;1.00;100.00;93385.06;5047571;28;20194;-51
2021/12/10 07:55:36;;;;;;;5.60;4.77;;;;;;;1.32;100.00;93382.97;5047362;28;20235;-49
2021/12/10 07:58:04;;;;;;;8.37;4.83;;;;;;;1.54;100.00;93378.19;5047553;28;20275;-64
2021/12/10 08:00:32;;;;;;;7.57;4.90;;;;;;;2.00;100.00;93365.88;5047479;28;20193;-51
2021/12/10 08:02:59;;;;;;;6.80;5.17;;;;;;;2.57;100.00;93368.78;5047773;28;20186;-66
2021/12/10 08:05:27;;;;;;;8.53;5.50;;;;;;;2.76;100.00;93368.94;5047549;28;20178;-68
2021/12/10 08:07:54;;;;;;;7.23;5.33;;;;;;;2.85;100.00;93363.81;5030702;28;20228;-62
2021/12/10 08:10:20;;;;;;;7.00;5.20;;;;;;;3.28;100.00;93359.38;5031019;28;20586;-63
2021/12/10 08:12:46;;;;;;;8.60;5.10;;;;;;;3.66;100.00;93357.28;5047456;28;20206;-60
2021/12/10 08:15:13;;;;;;;7.17;5.30;;;;;;;4.00;100.00;93357.13;5047428;28;20252;-64
2021/12/10 08:17:40;;;;;;;5.87;4.80;;;;;;;3.61;100.00;93363.16;5047465;28;20178;-63
2021/12/10 08:20:08;;;;;;;6.47;5.00;;;;;;;3.76;100.00;93358.28;5047677;28;20178;-49
2021/12/10 08:22:34;;;;;;;7.07;5.30;;;;;;;3.82;100.00;93362.06;5048719;28;20202;-49
2021/12/10 08:25:00;;;;;;;7.27;5.20;;;;;;;3.97;100.00;93350.59;5051306;28;20198;-50
2021/12/10 08:27:25;;;;;;;7.00;5.27;;;;;;;3.83;100.00;93352.78;5051428;28;20263;-47
2021/12/10 08:29:51;;;;;;;6.53;5.27;;;;;;;4.27;100.00;93344.31;5034944;28;20194;-49
2021/12/10 08:32:20;;;;;;;7.03;4.90;;;;;;;4.38;100.00;93344.88;5051294;28;20292;-49
2021/12/10 08:34:46;;;;;;;7.23;4.93;;;;;;;4.23;100.00;93340.91;5051167;28;20198;-59
2021/12/10 08:37:14;;;;;;;8.53;4.97;;;;;;;4.19;100.00;93345.63;5035646;28;20193;-70
2021/12/10 08:39:39;;;;;;;6.43;4.87;;;;;;;4.30;100.00;93338.84;5051269;28;20190;-47
2021/12/10 08:42:06;;;;;;;14.27;5.53;;;;;;;4.54;100.00;93342.25;5051115;28;20192;-53
2021/12/10 08:44:31;;;;;;;8.10;4.63;;;;;;;3.88;100.00;93334.19;5051053;28;20306;-53
2021/12/10 08:46:57;;;;;;;7.13;4.80;;;;;;;3.62;100.00;93326.13;5035447;28;20266;-48
2021/12/10 08:49:22;;;;;;;5.67;4.60;;;;;;;3.10;100.00;93329.22;5051186;28;20180;-51
2021/12/10 08:51:51;;;;;;;6.07;4.90;;;;;;;2.60;100.00;93331.03;5034302;28;20672;-49
2021/12/10 08:54:18;;;;;;;5.47;4.17;;;;;;;2.02;100.00;93335.91;5050837;28;20290;-48
2021/12/10 08:56:46;;;;;;;5.50;4.33;;;;;;;1.68;100.00;93341.19;5051197;28;20182;-51
2021/12/10 08:59:13;;;;;;;5.00;3.97;;;;;;;1.61;100.00;93327.84;5050697;28;20193;-49
2021/12/10 09:01:43;;;;;;;7.30;4.50;;;;;;;1.50;100.00;93321.78;5034018;28;20190;-50
2021/12/10 09:04:12;;;;;;;5.27;3.93;;;;;;;1.95;100.00;93319.81;5050521;28;20263;-55
2021/12/10 09:06:42;;;;;;;6.00;4.53;;;;;;;2.40;100.00;93318.56;5050500;28;20198;-55
2021/12/10 09:09:11;;;;;;;6.57;3.87;;;;;;;2.30;100.00;93319.47;5050677;28;20240;-51
2021/12/10 09:11:39;;;;;;;5.93;4.10;;;;;;;3.07;100.00;93308.44;5033799;28;20187;-59
2021/12/10 09:14:07;;;;;;;5.73;3.70;;;;;;;3.51;100.00;93310.88;5050548;28;20260;-62
2021/12/10 09:16:35;;;;;;;5.60;3.80;;;;;;;4.05;100.00;93297.25;5050417;28;20209;-61
2021/12/10 09:19:04;;;;;;;5.13;4.07;;;;;;;4.31;100.00;93301.78;5034444;28;20270;-60
2021/12/10 09:21:32;;;;;;;5.03;3.97;;;;;;;4.76;100.00;93289.31;5050473;28;20194;-60
2021/12/10 09:24:03;;;;;;;7.10;4.50;;;;;;;5.33;100.00;93278.78;5050533;28;20229;-60
2021/12/10 09:26:31;;;;;;;5.83;4.30;;;;;;;5.38;100.00;93283.69;5050360;28;20192;-61
2021/12/10 09:28:59;;;;;;;4.50;3.67;;;;;;;4.90;100.00;93280.91;5033735;28;20187;-59
2021/12/10 09:31:24;;;;;;;3.87;3.53;;;;;;;5.15;100.00;93273.00;5033598;28;20184;-47
2021/12/10 09:33:54;;;;;;;4.33;3.50;;;;;;;4.94;100.00;93279.66;5033022;28;20213;-59
2021/12/10 09:36:20;;;;;;;6.83;5.67;;;;;;;5.21;100.00;93271.34;5033681;28;20188;-60
2021/12/10 09:38:45;;;;;;;4.30;3.80;;;;;;;5.72;100.00;93273.97;5050285;28;20192;-59
2021/12/10 09:41:11;;;;;;;6.83;4.50;;;;;;;5.90;100.00;93265.44;5049811;28;20190;-59
2021/12/10 09:43:38;;;;;;;6.67;4.53;;;;;;;5.91;100.00;93258.84;5049748;28;20276;-61
2021/12/10 09:46:04;;;;;;;4.47;3.90;;;;;;;5.37;100.00;93268.63;5049983;28;20185;-60
2021/12/10 09:48:30;;;;;;;4.10;3.70;;;;;;;5.10;100.00;93265.41;5049713;28;20281;-50
2021/12/10 09:51:00;;;;;;;3.47;3.17;;;;;;;4.67;100.00;93264.78;5049423;28;20286;-65
2021/12/10 09:53:28;;;;;;;3.77;3.37;;;;;;;4.48;100.00;93263.63;5049840;28;20186;-67
2021/12/10 09:55:54;;;;;;;5.30;3.63;;;;;;;4.68;100.00;93260.91;5049688;28;20182;-67
2021/12/10 09:58:21;;;;;;;3.57;3.20;;;;;;;4.19;100.00;93246.44;5049611;28;20280;-65
2021/12/10 10:00:52;;;;;;;5.60;4.50;;;;;;;3.61;100.00;93249.06;5033168;28;20176;-64
2021/12/10 10:03:22;;;;;;;6.30;3.83;;;;;;;3.06;100.00;93242.22;5032453;28;20217;-73
2021/12/10 10:05:47;;;;;;;7.17;3.27;;;;;;;2.45;100.00;93240.03;5049647;28;20182;-69
2021/12/10 10:08:25;;;;;;;6.40;4.70;;;;;;;2.34;100.00;93240.16;5032937;28;20413;-61
2021/12/10 10:10:55;;;;;;;5.23;3.80;;;;;;;2.12;100.00;93238.88;5049823;28;20193;-60
2021/12/10 10:13:25;;;;;;;6.70;3.53;;;;;;;1.97;100.00;93223.31;5049735;28;20402;-61
2021/12/10 10:15:56;;;;;;;5.20;3.27;;;;;;;1.72;100.00;93225.53;5032717;28;20225;-59
2021/12/10 10:18:22;;;;;;;4.23;3.10;;;;;;;1.66;100.00;93222.50;5032778;28;20193;-60
2021/12/10 10:20:54;;;;;;;4.97;3.13;;;;;;;1.57;100.00;93202.63;5049474;28;20183;-59
2021/12/10 10:23:21;;;;;;;4.47;3.20;;;;;;;1.45;100.00;93203.16;5032581;28;20280;-59
2021/12/10 10:25:50;;;;;;;5.90;3.50;;;;;;;1.56;100.00;93191.09;5049180;28;20265;-69
2021/12/10 10:28:16;;;;;;;4.33;3.17;;;;;;;1.34;100.00;93178.28;5033541;28;20190;-54
2021/12/10 10:30:57;;;;;;;3.70;2.97;;;;;;;1.36;100.00;93170.59;5032251;28;20190;-53
2021/12/10 10:33:23;;;;;;;3.87;3.13;;;;;;;1.13;100.00;93160.44;5049312;28;20197;-56
2021/12/10 10:35:54;;;;;;;4.90;3.07;;;;;;;0.98;100.00;93150.97;5032295;28;20260;-51
2021/12/10 10:38:20;;;;;;;5.03;3.10;;;;;;;1.01;100.00;93150.19;5032398;28;20200;-51
2021/12/10 10:40:52;;;;;;;4.23;3.07;;;;;;;0.99;100.00;93144.47;5048756;28;20194;-56
2021/12/10 10:43:18;;;;;;;4.00;3.27;;;;;;;1.16;100.00;93132.75;5048838;28;20198;-69
2021/12/10 10:45:45;;;;;;;7.00;3.70;;;;;;;1.13;100.00;93128.19;5047816;28;20193;-48
2021/12/10 10:48:11;;;;;;;5.47;3.30;;;;;;;1.22;100.00;93127.72;5032198;28;20210;-59
2021/12/10 10:50:46;;;;;;;5.73;3.20;;;;;;;1.23;100.00;93124.63;5048776;28;20199;-62
2021/12/10 10:53:15;;;;;;;4.40;3.07;;;;;;;1.19;100.00;93128.50;5048847;28;20218;-60
2021/12/10 10:56:02;;;;;;;4.93;3.43;;;;;;;1.54;100.00;93139.66;5048559;28;20197;-59
2021/12/10 10:58:35;;;;;;;14.70;4.27;;;;;;;1.75;100.00;93154.78;5048681;28;20192;-58
2021/12/10 11:01:10;;;;;;;5.87;3.63;;;;;;;1.91;100.00;93147.69;5048492;28;20192;-60
2021/12/10 11:03:42;;;;;;;9.20;4.47;;;;;;;2.07;100.00;93150.53;5048328;28;20290;-46
2021/12/10 11:06:23;;;;;;;6.40;3.50;;;;;;;2.09;100.00;93145.53;5031931;28;20185;-56
2021/12/10 11:08:51;;;;;;;5.60;3.40;;;;;;;2.23;100.00;93142.63;5031734;28;20207;-50
2021/12/10 11:11:21;;;;;;;5.80;3.60;;;;;;;2.13;100.00;93148.94;5031757;28;20196;-52
2021/12/10 11:13:51;;;;;;;5.13;3.43;;;;;;;1.95;100.00;93148.38;5031707;28;20192;-51
2021/12/10 11:16:26;;;;;;;5.10;3.60;;;;;;;1.85;100.00;93138.50;5048001;28;20194;-52
2021/12/10 11:18:54;;;;;;;4.17;3.43;;;;;;;1.58;100.00;93139.63;5048136;28;20194;-52
2021/12/10 11:21:49;;;;;;;4.50;3.33;;;;;;;1.50;100.00;93128.19;5048445;28;20202;-70
2021/12/10 11:24:48;;;;;;;4.47;3.70;;;;;;;1.61;100.00;93114.63;5047762;28;20206;-51
2021/12/10 11:27:17;;;;;;;4.97;3.60;;;;;;;1.59;100.00;93112.31;5048063;28;20217;-53
2021/12/10 11:29:51;;;;;;;6.03;3.43;;;;;;;1.65;100.00;93108.03;5048176;28;20190;-52
2021/12/10 11:32:25;;;;;;;4.63;3.43;;;;;;;1.79;100.00;93107.84;5048229;28;20315;-54
2021/12/10 11:35:08;;;;;;;5.17;3.43;;;;;;;1.77;100.00;93107.50;5048251;28;20280;-53
2021/12/10 11:38:00;;;;;;;5.10;3.57;;;;;;;1.84;100.00;93104.72;5048042;28;20213;-52
2021/12/10 11:40:35;;;;;;;5.00;3.90;;;;;;;1.98;100.00;93088.41;5024324;28;20257;-60
2021/12/10 11:48:38;;;;;;;3.90;3.37;;;;;;;1.89;100.00;93090.81;5032207;28;20182;-55
2021/12/10 11:51:17;;;;;;;5.87;3.83;;;;;;;1.96;100.00;93090.72;5047689;28;20188;-57
2021/12/10 11:53:59;;;;;;;7.13;3.63;;;;;;;1.88;100.00;93089.28;5031225;28;20192;-55
2021/12/10 11:57:03;;;;;;;5.23;3.63;;;;;;;1.94;100.00;93087.69;5031338;28;20204;-56